Time;durP1;ratioP1;P1;durP2;ratioP2;P2;SDS_P1;SDS_P2;PMS_P1;PMS_P2;Temp;Humidity;BMP_temperature;BMP_pressure;BME280_temperature;BME280_humidity;BME280_pressure;Samples;Min_cycle;Max_cycle;Signal;HPM_P1;HPM_P2
2021/11/21 00:01:38;;;;;;;11.40;8.00;;;;;;;11.02;59.05;100001.84;4952915;28;97426;-78
2021/11/21 00:04:04;;;;;;;10.63;8.02;;;;;;;11.00;59.14;100002.88;4936631;28;96548;-78
2021/11/21 00:06:30;;;;;;;11.27;7.35;;;;;;;11.05;59.00;100000.88;4920719;28;96925;-78
2021/11/21 00:08:55;;;;;;;13.43;8.05;;;;;;;11.12;59.21;99993.63;4936428;28;100825;-78
2021/11/21 00:11:21;;;;;;;10.90;7.43;;;;;;;11.07;59.01;99997.28;4920385;28;100587;-78
2021/11/21 00:13:49;;;;;;;11.13;7.60;;;;;;;11.06;58.95;99995.56;4953349;28;96493;-78
2021/11/21 00:16:15;;;;;;;10.80;8.02;;;;;;;11.06;59.06;99986.84;4952863;28;96876;-78
2021/11/21 00:18:41;;;;;;;13.77;7.68;;;;;;;11.08;58.88;99982.38;4936594;28;97388;-78
2021/11/21 00:21:06;;;;;;;10.55;7.20;;;;;;;11.03;58.99;99974.69;4936901;28;96560;-78
2021/11/21 00:23:32;;;;;;;11.35;7.57;;;;;;;11.03;59.21;99973.84;4936973;28;96597;-78
2021/11/21 00:25:58;;;;;;;9.45;7.15;;;;;;;11.03;59.02;99968.59;4936846;28;96824;-78
2021/11/21 00:28:24;;;;;;;9.77;7.40;;;;;;;11.03;59.08;99972.06;4936160;28;96600;-78
2021/11/21 00:30:50;;;;;;;11.93;8.02;;;;;;;10.94;59.24;99958.44;4936453;28;97735;-78
2021/11/21 00:33:15;;;;;;;10.65;7.65;;;;;;;10.98;58.65;99960.88;4936267;28;96695;-78
2021/11/21 00:35:43;;;;;;;11.82;7.22;;;;;;;11.02;58.93;99962.44;4952640;28;96724;-78
2021/11/21 00:38:08;;;;;;;9.95;6.85;;;;;;;10.94;58.97;99959.31;4952803;28;97724;-78
2021/11/21 00:40:34;;;;;;;11.10;7.47;;;;;;;10.99;58.88;99953.84;4936156;28;100256;-78
2021/11/21 00:43:00;;;;;;;13.10;6.93;;;;;;;10.99;58.91;99951.22;4935753;28;96455;-77
2021/11/21 00:45:27;;;;;;;9.25;6.90;;;;;;;10.96;59.02;99944.31;4904390;28;96940;-78
2021/11/21 00:47:53;;;;;;;11.93;7.15;;;;;;;10.91;59.11;99934.94;4936269;28;97916;-78
2021/11/21 00:50:24;;;;;;;9.95;7.05;;;;;;;10.90;59.33;99930.59;4952538;28;97127;-78
2021/11/21 00:52:56;;;;;;;9.95;7.38;;;;;;;10.93;58.87;99933.94;4951775;28;96355;-77
2021/11/21 00:55:32;;;;;;;9.85;7.15;;;;;;;10.94;59.08;99926.91;4920938;28;96653;-78
2021/11/21 00:57:58;;;;;;;8.25;6.70;;;;;;;10.98;58.67;99918.03;4921533;28;96441;-78
2021/11/21 01:00:23;;;;;;;12.10;7.10;;;;;;;10.94;59.12;99925.19;4935487;28;97399;-78
2021/11/21 01:02:49;;;;;;;8.65;6.72;;;;;;;10.97;59.00;99932.94;4934849;28;96405;-77
2021/11/21 01:05:14;;;;;;;8.90;6.60;;;;;;;10.96;58.63;99927.72;4952091;28;96779;-78
2021/11/21 01:07:40;;;;;;;9.02;6.65;;;;;;;10.95;58.80;99926.03;4935976;28;97925;-78
2021/11/21 01:10:13;;;;;;;10.77;7.22;;;;;;;10.98;58.76;99918.03;4936251;28;97698;-77
2021/11/21 01:12:42;;;;;;;9.60;6.90;;;;;;;10.93;58.88;99910.31;4936158;28;96617;-78
2021/11/21 01:15:12;;;;;;;8.10;6.70;;;;;;;10.91;59.11;99912.19;4936128;28;96576;-78
2021/11/21 01:17:38;;;;;;;9.25;6.85;;;;;;;10.96;59.08;99910.19;4934978;28;97623;-78
2021/11/21 01:20:06;;;;;;;8.70;6.88;;;;;;;10.95;58.78;99908.50;4919136;28;100181;-78
2021/11/21 01:22:32;;;;;;;9.98;6.85;;;;;;;10.96;58.72;99912.81;4935914;28;96689;-78
2021/11/21 01:24:58;;;;;;;9.27;6.95;;;;;;;10.95;58.79;99903.25;4935461;28;96790;-78
2021/11/21 01:27:25;;;;;;;9.57;6.80;;;;;;;10.92;58.91;99895.50;4951798;28;97901;-77
2021/11/21 01:29:50;;;;;;;9.77;7.15;;;;;;;10.91;59.06;99890.28;4951639;28;97451;-78
2021/11/21 01:32:16;;;;;;;11.30;6.95;;;;;;;10.92;58.81;99885.00;4951978;28;96852;-78
2021/11/21 01:34:42;;;;;;;9.52;7.20;;;;;;;10.93;58.98;99881.44;4935820;28;96892;-78
2021/11/21 01:37:08;;;;;;;11.07;7.13;;;;;;;10.93;58.99;99883.22;4935378;28;98042;-78
2021/11/21 01:39:33;;;;;;;10.65;7.53;;;;;;;10.88;59.32;99872.91;4951696;28;99504;-78
2021/11/21 01:41:59;;;;;;;10.00;7.13;;;;;;;10.92;58.90;99871.00;4935136;28;96455;-78
2021/11/21 01:44:24;;;;;;;9.63;6.72;;;;;;;10.91;58.96;99872.78;4951572;28;96773;-78
2021/11/21 01:46:51;;;;;;;9.85;6.90;;;;;;;10.91;58.95;99857.03;4951392;28;97324;-78
2021/11/21 01:49:19;;;;;;;9.70;7.43;;;;;;;10.92;59.30;99848.22;4934928;28;100471;-78
2021/11/21 01:51:45;;;;;;;9.35;6.72;;;;;;;10.94;59.24;99856.91;4951736;28;96589;-78
2021/11/21 01:54:12;;;;;;;9.32;7.13;;;;;;;10.92;59.06;99855.25;4935485;28;96708;-77
2021/11/21 01:56:39;;;;;;;12.45;8.52;;;;;;;10.85;59.29;99854.66;4919079;28;97535;-78
2021/11/21 01:59:05;;;;;;;10.15;7.90;;;;;;;10.86;59.62;99844.09;4950999;28;97262;-78
2021/11/21 02:01:31;;;;;;;14.05;8.65;;;;;;;10.86;59.55;99851.97;4951178;28;96521;-77
2021/11/21 02:03:56;;;;;;;11.95;8.27;;;;;;;10.87;59.34;99845.78;4935176;28;96783;-78
2021/11/21 02:06:22;;;;;;;13.02;8.23;;;;;;;10.88;59.06;99844.88;4917835;28;99555;-78
2021/11/21 02:08:52;;;;;;;13.00;7.90;;;;;;;10.90;59.46;99849.19;4951206;28;97305;-78
2021/11/21 02:11:18;;;;;;;11.13;8.57;;;;;;;10.90;59.70;99852.69;4934950;28;96674;-78
2021/11/21 02:13:43;;;;;;;12.98;9.20;;;;;;;10.88;59.22;99850.13;4934835;28;96830;-81
2021/11/21 02:16:10;;;;;;;15.13;8.35;;;;;;;10.85;59.77;99850.25;4950901;28;97598;-77
2021/11/21 02:18:37;;;;;;;11.77;8.35;;;;;;;10.86;59.55;99851.13;4950766;28;97690;-78
2021/11/21 02:21:03;;;;;;;11.25;8.10;;;;;;;10.89;59.78;99850.97;4951207;28;96658;-78
2021/11/21 02:23:29;;;;;;;13.32;7.93;;;;;;;10.86;59.54;99841.47;4935208;28;96906;-78
2021/11/21 02:25:55;;;;;;;12.40;8.35;;;;;;;10.81;59.65;99838.16;4933917;28;99633;-78
2021/11/21 02:28:22;;;;;;;10.00;8.18;;;;;;;10.85;59.54;99845.00;4950650;28;99937;-79
2021/11/21 02:30:48;;;;;;;9.55;7.75;;;;;;;10.84;59.53;99845.06;4918371;28;96484;-78
2021/11/21 02:33:17;;;;;;;10.65;8.02;;;;;;;10.85;59.46;99845.00;4950566;28;96824;-78
2021/11/21 02:35:46;;;;;;;9.98;7.88;;;;;;;10.82;59.60;99839.00;4934410;28;97755;-78
2021/11/21 02:38:13;;;;;;;9.80;8.05;;;;;;;10.78;59.79;99829.56;4934173;28;100471;-78
2021/11/21 02:40:39;;;;;;;9.70;7.88;;;;;;;10.74;59.89;99826.22;4950526;28;96524;-78
2021/11/21 02:43:05;;;;;;;11.65;8.27;;;;;;;10.83;59.36;99814.50;4918634;28;96726;-77
2021/11/21 02:45:31;;;;;;;10.68;8.45;;;;;;;10.87;59.40;99809.03;4934324;28;97745;-78
2021/11/21 02:47:57;;;;;;;11.68;8.70;;;;;;;10.83;59.50;99807.47;4950872;28;97399;-78
2021/11/21 02:50:23;;;;;;;13.80;8.80;;;;;;;10.81;59.66;99805.81;4935849;28;96520;-77
2021/11/21 02:52:50;;;;;;;12.77;9.07;;;;;;;10.80;59.57;99797.09;4950549;28;96800;-78
2021/11/21 02:55:16;;;;;;;10.43;8.75;;;;;;;10.81;59.73;99803.19;4917469;28;100727;-79
2021/11/21 02:57:42;;;;;;;10.02;7.38;;;;;;;10.76;59.60;99811.28;4918174;28;97420;-78
2021/11/21 03:00:11;;;;;;;11.60;8.32;;;;;;;10.75;59.87;99799.06;4933580;28;96565;-78
2021/11/21 03:02:45;;;;;;;9.90;7.55;;;;;;;10.73;60.01;99798.25;4934033;28;96674;-78
2021/11/21 03:05:10;;;;;;;10.90;7.82;;;;;;;10.78;59.65;99784.94;4917712;28;100259;-77
2021/11/21 03:07:36;;;;;;;14.43;8.30;;;;;;;10.67;59.80;99781.94;4950416;28;97618;-78
2021/11/21 03:10:03;;;;;;;10.75;8.32;;;;;;;10.70;59.58;99781.78;4934085;28;96517;-78
2021/11/21 03:12:29;;;;;;;10.43;7.40;;;;;;;10.67;59.59;99780.16;4950595;28;96851;-78
2021/11/21 03:14:55;;;;;;;11.15;7.55;;;;;;;10.70;59.66;99780.00;4933678;28;100590;-78
2021/11/21 03:17:21;;;;;;;14.75;8.88;;;;;;;10.63;59.73;99774.19;4933274;28;99704;-78
2021/11/21 03:19:47;;;;;;;12.48;7.88;;;;;;;10.61;59.65;99769.91;4950030;28;96458;-78
2021/11/21 03:22:12;;;;;;;11.40;8.07;;;;;;;10.62;59.70;99769.03;4950289;28;96799;-78
2021/11/21 03:24:38;;;;;;;11.55;8.27;;;;;;;10.54;60.06;99773.75;4932927;28;100558;-78
2021/11/21 03:27:04;;;;;;;12.07;8.88;;;;;;;10.58;60.42;99781.41;4933576;28;100104;-78
2021/11/21 03:29:30;;;;;;;10.43;8.85;;;;;;;10.59;59.99;99777.88;4950503;28;96396;-78
2021/11/21 03:31:55;;;;;;;11.50;8.90;;;;;;;10.57;60.19;99782.31;4950513;28;96780;-78
2021/11/21 03:34:21;;;;;;;12.90;8.93;;;;;;;10.55;60.52;99781.53;4950239;28;97815;-78
2021/11/21 03:36:46;;;;;;;13.55;8.88;;;;;;;10.58;60.54;99778.78;4934194;28;97346;-78
2021/11/21 03:39:12;;;;;;;14.00;9.27;;;;;;;10.58;60.43;99772.66;4950258;28;96586;-78
2021/11/21 03:41:38;;;;;;;12.60;8.75;;;;;;;10.57;60.20;99774.44;4935252;28;96743;-78
2021/11/21 03:44:07;;;;;;;13.13;9.57;;;;;;;10.53;60.69;99767.63;4900748;28;100647;-77
2021/11/21 03:46:34;;;;;;;15.75;9.60;;;;;;;10.54;60.68;99766.72;4933587;28;97193;-78
2021/11/21 03:49:00;;;;;;;12.63;9.80;;;;;;;10.54;60.49;99766.72;4917496;28;96527;-78
2021/11/21 03:51:25;;;;;;;12.40;8.98;;;;;;;10.54;60.49;99758.84;4917843;28;96743;-78
2021/11/21 03:53:51;;;;;;;11.93;9.32;;;;;;;10.43;60.40;99758.44;4933304;28;100683;-78
2021/11/21 03:56:17;;;;;;;15.18;10.02;;;;;;;10.51;60.28;99755.50;4933440;28;97355;-78
2021/11/21 03:58:43;;;;;;;16.40;10.43;;;;;;;10.51;60.64;99755.50;4933341;28;96691;-78
2021/11/21 04:01:09;;;;;;;12.15;8.63;;;;;;;10.50;60.70;99754.66;4933272;28;97002;-78
2021/11/21 04:03:35;;;;;;;13.98;9.60;;;;;;;10.51;60.51;99750.25;4933557;28;97724;-78
2021/11/21 04:06:01;;;;;;;13.88;9.85;;;;;;;10.46;60.64;99757.47;4933296;28;97132;-78
2021/11/21 04:08:27;;;;;;;13.65;9.68;;;;;;;10.42;61.04;99747.09;4949218;28;96511;-78
2021/11/21 04:10:54;;;;;;;13.40;9.43;;;;;;;10.43;60.69;99748.78;4933578;28;96809;-76
2021/11/21 04:13:22;;;;;;;16.40;10.13;;;;;;;10.47;60.93;99746.03;4917363;28;100337;-78
2021/11/21 04:15:47;;;;;;;14.00;9.40;;;;;;;10.45;60.86;99750.50;4933268;28;97543;-78
2021/11/21 04:18:13;;;;;;;15.65;11.15;;;;;;;10.42;60.95;99746.25;4949804;28;96569;-78
2021/11/21 04:20:38;;;;;;;13.93;10.75;;;;;;;10.41;60.86;99742.78;4949705;28;96783;-78
2021/11/21 04:23:04;;;;;;;15.55;10.40;;;;;;;10.42;60.96;99743.63;4933270;28;97733;-79
2021/11/21 04:25:30;;;;;;;11.60;9.73;;;;;;;10.38;60.65;99750.78;4934779;28;97582;-77
2021/11/21 04:27:55;;;;;;;13.70;10.00;;;;;;;10.38;61.03;99740.28;4917052;28;96669;-77
2021/11/21 04:30:21;;;;;;;14.68;10.05;;;;;;;10.38;60.69;99737.66;4933181;28;96899;-78
2021/11/21 04:32:47;;;;;;;15.73;10.90;;;;;;;10.32;61.26;99735.25;4948478;28;100757;-78
2021/11/21 04:35:17;;;;;;;14.95;10.05;;;;;;;10.32;61.01;99730.03;4933009;28;97668;-78
2021/11/21 04:37:42;;;;;;;16.17;12.48;;;;;;;10.31;61.06;99719.59;4935626;28;96550;-78
2021/11/21 04:40:09;;;;;;;17.95;12.13;;;;;;;10.33;61.18;99723.88;4936647;28;96518;-78
2021/11/21 04:42:35;;;;;;;20.70;13.40;;;;;;;10.35;60.91;99721.16;4936379;28;97788;-78
2021/11/21 04:45:01;;;;;;;16.70;12.10;;;;;;;10.33;60.96;99721.25;4952111;28;98392;-78
2021/11/21 04:47:26;;;;;;;16.38;12.35;;;;;;;10.35;60.89;99719.41;4936690;28;97137;-78
2021/11/21 04:49:52;;;;;;;19.25;12.20;;;;;;;10.36;60.98;99712.41;4936946;28;96710;-78
2021/11/21 04:52:18;;;;;;;16.45;11.50;;;;;;;10.33;61.63;99710.75;4937268;28;97338;-78
2021/11/21 04:54:45;;;;;;;16.98;10.98;;;;;;;10.29;61.22;99705.69;4952346;28;97434;-77
2021/11/21 04:57:10;;;;;;;17.20;12.05;;;;;;;10.32;61.28;99709.03;4951864;28;96549;-78
2021/11/21 04:59:36;;;;;;;17.23;11.45;;;;;;;10.34;61.25;99701.13;4935986;28;96772;-78
2021/11/21 05:02:03;;;;;;;16.30;12.35;;;;;;;10.30;61.32;99700.41;4951640;28;100552;-78
2021/11/21 05:04:29;;;;;;;16.92;11.85;;;;;;;10.30;61.06;99692.53;4935892;28;97427;-78
2021/11/21 05:06:55;;;;;;;15.75;11.75;;;;;;;10.28;61.03;99688.25;4952492;28;96549;-78
2021/11/21 05:09:21;;;;;;;17.55;12.35;;;;;;;10.25;61.51;99676.09;4952173;28;96833;-78
2021/11/21 05:11:46;;;;;;;16.33;11.95;;;;;;;10.26;61.70;99674.31;4935782;28;98021;-77
2021/11/21 05:14:15;;;;;;;17.45;11.48;;;;;;;10.25;61.33;99670.00;4936272;28;97729;-78
2021/11/21 05:16:40;;;;;;;21.83;12.10;;;;;;;10.29;61.57;99661.09;4951896;28;96544;-78
2021/11/21 05:19:06;;;;;;;14.57;11.52;;;;;;;10.26;61.71;99663.81;4919924;28;96732;-78
2021/11/21 05:21:32;;;;;;;15.70;10.73;;;;;;;10.21;61.84;99656.16;4951580;28;97883;-78
2021/11/21 05:23:57;;;;;;;17.55;11.80;;;;;;;10.17;61.64;99655.44;4935618;28;97089;-78
2021/11/21 05:26:24;;;;;;;17.85;11.52;;;;;;;10.24;61.67;99663.03;4952097;28;96624;-78
2021/11/21 05:28:50;;;;;;;15.13;10.55;;;;;;;10.20;61.83;99663.16;4903457;28;96827;-78
2021/11/21 05:31:17;;;;;;;16.65;11.75;;;;;;;10.12;61.90;99661.78;4919458;28;97973;-78
2021/11/21 05:33:43;;;;;;;15.10;10.82;;;;;;;10.17;62.09;99657.19;4919223;28;100394;-78
2021/11/21 05:36:08;;;;;;;15.35;11.63;;;;;;;10.19;61.68;99648.34;4951992;28;96402;-78
2021/11/21 05:38:34;;;;;;;14.18;11.35;;;;;;;9.97;62.12;99650.19;4936114;28;96731;-78
2021/11/21 05:41:00;;;;;;;16.30;11.10;;;;;;;9.95;62.26;99650.25;4951584;28;97891;-78
2021/11/21 05:43:26;;;;;;;13.35;10.88;;;;;;;10.07;62.01;99648.03;4919351;28;97303;-78
2021/11/21 05:45:51;;;;;;;13.60;11.23;;;;;;;10.08;61.95;99647.97;4918596;28;96577;-78
2021/11/21 05:48:17;;;;;;;12.63;9.80;;;;;;;10.12;61.76;99641.69;4936396;28;96730;-78
2021/11/21 05:50:42;;;;;;;13.90;10.27;;;;;;;10.08;62.19;99637.47;4951473;28;97603;-78
2021/11/21 05:53:08;;;;;;;15.10;10.90;;;;;;;10.14;61.86;99639.81;4934896;28;100431;-78
2021/11/21 05:55:34;;;;;;;14.57;11.75;;;;;;;10.15;62.35;99633.69;4935209;28;96665;-78
2021/11/21 05:57:59;;;;;;;16.35;10.88;;;;;;;10.15;61.68;99635.44;4951690;28;96733;-78
2021/11/21 06:00:26;;;;;;;16.17;11.07;;;;;;;10.17;61.93;99641.47;4934137;28;100841;-78
2021/11/21 06:02:52;;;;;;;13.52;10.88;;;;;;;10.12;62.08;99640.81;4951778;28;97315;-78
2021/11/21 06:05:19;;;;;;;12.48;10.40;;;;;;;10.11;62.33;99649.59;4951440;28;96522;-78
2021/11/21 06:07:45;;;;;;;19.02;12.02;;;;;;;10.15;61.86;99644.16;4935341;28;96685;-78
2021/11/21 06:10:11;;;;;;;16.38;12.20;;;;;;;10.13;61.79;99650.41;4917854;28;100501;-78
2021/11/21 06:12:37;;;;;;;15.13;12.30;;;;;;;10.01;62.40;99648.31;4951201;28;97587;-78
2021/11/21 06:15:03;;;;;;;16.25;12.07;;;;;;;10.08;62.00;99647.97;4919094;28;96621;-78
2021/11/21 06:17:28;;;;;;;16.38;12.27;;;;;;;10.01;62.47;99643.06;4951442;28;96783;-77
2021/11/21 06:19:55;;;;;;;18.10;12.38;;;;;;;10.02;62.41;99652.63;4934804;28;97990;-78
2021/11/21 06:22:21;;;;;;;16.85;11.80;;;;;;;10.07;62.30;99648.03;4934574;28;100014;-78
2021/11/21 06:24:46;;;;;;;16.55;11.35;;;;;;;9.98;62.04;99638.78;4951116;28;96585;-78
2021/11/21 06:27:12;;;;;;;15.98;12.00;;;;;;;10.06;61.72;99647.16;4935346;28;96745;-78
2021/11/21 06:29:38;;;;;;;15.13;11.80;;;;;;;10.11;62.11;99641.72;4950609;28;100354;-78
2021/11/21 06:32:04;;;;;;;16.98;11.85;;;;;;;10.11;61.81;99649.59;4934624;28;97380;-78
2021/11/21 06:34:30;;;;;;;13.15;11.02;;;;;;;10.12;61.68;99652.16;4918446;28;96392;-78
2021/11/21 06:36:55;;;;;;;17.00;11.93;;;;;;;10.16;61.30;99642.41;4934645;28;96735;-78
2021/11/21 06:39:21;;;;;;;13.45;11.10;;;;;;;10.13;61.74;99645.16;4934083;28;100188;-78
2021/11/21 06:41:46;;;;;;;15.30;11.30;;;;;;;10.10;61.47;99647.91;4950527;28;98653;-78
2021/11/21 06:44:12;;;;;;;16.50;11.77;;;;;;;10.14;61.79;99649.47;4934602;28;96634;-78
2021/11/21 06:46:38;;;;;;;14.43;11.20;;;;;;;10.10;61.45;99647.91;4951126;28;96840;-78
2021/11/21 06:49:04;;;;;;;15.88;11.45;;;;;;;10.16;61.90;99647.63;4950483;28;97825;-78
2021/11/21 06:51:30;;;;;;;16.27;11.35;;;;;;;10.18;62.00;99641.41;4950929;28;97150;-78
2021/11/21 06:53:56;;;;;;;18.55;12.35;;;;;;;10.25;61.82;99641.16;4918248;28;96626;-78
2021/11/21 06:56:23;;;;;;;16.40;11.88;;;;;;;10.27;61.62;99645.44;4950746;28;96793;-78
2021/11/21 06:58:49;;;;;;;16.83;12.32;;;;;;;10.22;61.46;99639.50;4932502;28;97630;-78
2021/11/21 07:01:15;;;;;;;17.30;12.48;;;;;;;10.19;61.30;99639.63;4950154;28;97296;-78
2021/11/21 07:03:41;;;;;;;17.40;12.55;;;;;;;10.12;61.76;99639.06;4950512;28;96535;-78
2021/11/21 07:06:06;;;;;;;16.67;11.90;;;;;;;10.20;61.81;99633.47;4950330;28;96858;-78
2021/11/21 07:08:32;;;;;;;18.70;13.32;;;;;;;10.23;61.53;99638.56;4933970;28;97890;-78
2021/11/21 07:10:57;;;;;;;20.48;15.65;;;;;;;10.25;61.32;99628.88;4950205;28;97515;-77
2021/11/21 07:13:23;;;;;;;21.83;14.85;;;;;;;10.25;61.34;99628.88;4950714;28;96537;-78
2021/11/21 07:15:49;;;;;;;23.27;16.58;;;;;;;10.29;61.53;99630.47;4950900;28;96576;-78
2021/11/21 07:18:15;;;;;;;21.70;17.45;;;;;;;10.31;61.23;99630.41;4949916;28;99911;-77
2021/11/21 07:20:40;;;;;;;19.85;15.88;;;;;;;10.32;61.06;99625.09;4950251;28;97637;-78
2021/11/21 07:23:06;;;;;;;20.05;15.57;;;;;;;10.34;61.20;99625.88;4933543;28;96719;-78
2021/11/21 07:25:32;;;;;;;17.98;13.82;;;;;;;10.40;61.30;99630.00;4933787;28;96954;-77
2021/11/21 07:27:58;;;;;;;18.80;12.80;;;;;;;10.40;61.32;99633.47;4949787;28;97902;-77
2021/11/21 07:30:24;;;;;;;19.00;13.30;;;;;;;10.48;60.80;99634.94;4950062;28;97189;-78
2021/11/21 07:32:51;;;;;;;19.25;12.93;;;;;;;10.47;61.12;99625.31;4934133;28;96410;-78
2021/11/21 07:35:19;;;;;;;18.85;12.68;;;;;;;10.55;60.62;99642.44;4950176;28;96861;-78
2021/11/21 07:37:45;;;;;;;16.33;12.68;;;;;;;10.77;60.14;99634.47;4949745;28;97681;-77
2021/11/21 07:40:12;;;;;;;13.93;11.05;;;;;;;11.17;59.25;99634.38;4933818;28;100174;-78
2021/11/21 07:42:38;;;;;;;14.90;11.23;;;;;;;11.91;57.37;99631.66;4933822;28;96685;-78
2021/11/21 07:45:05;;;;;;;15.60;12.35;;;;;;;12.51;56.01;99629.44;4933830;28;96709;-78
2021/11/21 07:47:31;;;;;;;13.77;11.02;;;;;;;13.04;54.88;99628.31;4932911;28;98038;-78
2021/11/21 07:49:57;;;;;;;18.15;12.65;;;;;;;13.67;52.94;99627.47;4934905;28;97598;-78
2021/11/21 07:52:25;;;;;;;15.70;12.48;;;;;;;13.27;53.00;99639.41;4933788;28;96604;-78
2021/11/21 07:54:51;;;;;;;15.60;12.25;;;;;;;12.94;54.21;99621.00;4933914;28;96765;-78
2021/11/21 07:57:16;;;;;;;15.60;12.82;;;;;;;12.99;54.36;99630.34;4949664;28;97895;-77
2021/11/21 07:59:42;;;;;;;18.23;14.27;;;;;;;12.80;54.22;99633.16;4932688;28;100284;-79
2021/11/21 08:02:07;;;;;;;20.95;14.55;;;;;;;12.72;54.06;99630.06;4933608;28;96678;-78
2021/11/21 08:04:33;;;;;;;19.17;12.85;;;;;;;13.22;53.46;99636.13;4950136;28;96840;-78
2021/11/21 08:06:59;;;;;;;21.00;14.55;;;;;;;13.53;52.90;99630.03;4932981;28;97501;-78
2021/11/21 08:09:24;;;;;;;17.98;13.20;;;;;;;13.56;51.94;99630.69;4933115;28;97216;-78
2021/11/21 08:11:50;;;;;;;18.23;12.32;;;;;;;13.46;52.19;99629.50;4935230;28;96421;-78
2021/11/21 08:14:15;;;;;;;17.13;12.40;;;;;;;13.09;53.13;99617.53;4952733;28;96786;-78
2021/11/21 08:16:42;;;;;;;15.35;11.93;;;;;;;12.99;52.89;99626.88;4952536;28;97447;-78
2021/11/21 08:19:10;;;;;;;15.82;11.80;;;;;;;12.64;53.78;99633.09;4935982;28;100344;-78
2021/11/21 08:21:35;;;;;;;17.13;12.20;;;;;;;12.48;54.43;99632.25;4920180;28;96719;-78
2021/11/21 08:24:01;;;;;;;15.63;12.13;;;;;;;12.28;54.96;99630.66;4937736;28;96726;-77
2021/11/21 08:26:27;;;;;;;14.15;11.80;;;;;;;12.30;54.75;99618.22;4935758;28;100517;-78
2021/11/21 08:28:52;;;;;;;16.83;13.48;;;;;;;12.05;55.21;99626.56;4936328;28;100497;-78
2021/11/21 08:31:18;;;;;;;15.55;11.15;;;;;;;12.07;55.35;99629.97;4936158;28;96510;-77
2021/11/21 08:33:44;;;;;;;15.13;11.93;;;;;;;12.12;54.91;99625.31;4952521;28;96938;-78
2021/11/21 08:36:09;;;;;;;14.27;11.75;;;;;;;12.05;55.18;99628.34;4951940;28;97752;-77
2021/11/21 08:38:35;;;;;;;13.23;10.73;;;;;;;12.11;55.15;99620.97;4952085;28;98514;-78
2021/11/21 08:41:02;;;;;;;14.80;12.45;;;;;;;11.98;55.09;99625.16;4936425;28;96456;-77
2021/11/21 08:43:28;;;;;;;14.43;11.70;;;;;;;11.88;55.57;99626.56;4920428;28;96657;-77
2021/11/21 08:45:53;;;;;;;14.35;11.70;;;;;;;11.85;55.55;99626.69;4935870;28;97921;-77
2021/11/21 08:48:19;;;;;;;16.20;11.27;;;;;;;11.71;55.56;99619.47;4951635;28;100219;-78
2021/11/21 08:50:45;;;;;;;14.68;12.35;;;;;;;11.72;55.44;99613.28;4952543;28;96577;-78
2021/11/21 08:53:10;;;;;;;14.23;11.10;;;;;;;11.55;55.43;99625.50;4952985;28;96637;-79
2021/11/21 08:55:36;;;;;;;13.93;11.32;;;;;;;11.48;56.19;99623.25;4936068;28;97891;-78
2021/11/21 08:58:04;;;;;;;14.60;11.50;;;;;;;11.47;56.12;99622.41;4935838;28;97140;-77
2021/11/21 09:00:30;;;;;;;18.02;13.18;;;;;;;11.49;55.85;99623.19;4934474;28;96400;-77
2021/11/21 09:02:55;;;;;;;17.40;12.75;;;;;;;11.36;56.14;99623.84;4952507;28;96547;-77
2021/11/21 09:05:23;;;;;;;15.18;11.70;;;;;;;11.27;56.40;99618.09;4952187;28;97584;-78
2021/11/21 09:07:49;;;;;;;15.55;12.57;;;;;;;11.28;56.29;99625.03;4919770;28;100333;-78
2021/11/21 09:10:16;;;;;;;17.92;13.25;;;;;;;11.10;56.83;99626.78;4919736;28;96601;-77
2021/11/21 09:12:43;;;;;;;15.63;13.07;;;;;;;11.15;56.81;99628.34;4937442;28;96692;-77
2021/11/21 09:15:15;;;;;;;24.33;12.75;;;;;;;11.18;56.70;99618.53;4935419;28;100889;-78
2021/11/21 09:17:42;;;;;;;16.17;13.10;;;;;;;11.18;56.67;99617.69;4935943;28;97117;-78
2021/11/21 09:20:09;;;;;;;14.43;12.48;;;;;;;11.22;56.30;99612.22;4903470;28;96503;-77
2021/11/21 09:22:35;;;;;;;15.75;12.05;;;;;;;11.22;56.55;99609.56;4935226;28;96820;-78
2021/11/21 09:25:00;;;;;;;21.50;16.27;;;;;;;11.16;56.58;99612.50;4951030;28;100219;-77
2021/11/21 09:27:26;;;;;;;23.92;16.25;;;;;;;11.12;56.48;99610.97;4951346;28;100476;-77
2021/11/21 09:29:52;;;;;;;18.83;13.70;;;;;;;11.25;56.82;99605.97;4935638;28;96400;-78
2021/11/21 09:32:18;;;;;;;20.95;15.13;;;;;;;11.25;56.57;99622.56;4935712;28;96920;-78
2021/11/21 09:34:43;;;;;;;19.50;14.05;;;;;;;11.19;56.51;99614.97;4903192;28;100377;-78
2021/11/21 09:37:09;;;;;;;17.60;13.50;;;;;;;11.19;56.38;99614.97;4935337;28;97367;-79
2021/11/21 09:39:35;;;;;;;16.90;13.73;;;;;;;11.22;56.46;99606.94;4951967;28;96564;-78
2021/11/21 09:42:01;;;;;;;19.00;13.30;;;;;;;11.24;56.59;99606.91;4936074;28;96781;-78
2021/11/21 09:44:27;;;;;;;18.52;13.13;;;;;;;11.24;56.80;99597.22;4934975;28;100785;-78
2021/11/21 09:46:53;;;;;;;19.65;13.52;;;;;;;11.27;56.79;99597.09;4918409;28;99209;-78
2021/11/21 09:49:25;;;;;;;17.90;13.63;;;;;;;11.24;56.62;99597.22;4934762;28;96504;-79
2021/11/21 09:51:50;;;;;;;;;;;;;;;11.17;56.74;99595.84;4936043;28;96745;-78
2021/11/21 09:54:16;;;;;;;15.95;12.52;;;;;;;11.20;56.72;99598.31;4934779;28;100956;-78
2021/11/21 09:56:43;;;;;;;17.65;13.77;;;;;;;11.24;56.69;99596.38;4951109;28;100206;-79
2021/11/21 09:59:09;;;;;;;17.05;12.73;;;;;;;11.27;56.43;99580.47;4918471;28;96682;-78
2021/11/21 10:01:42;;;;;;;15.52;12.82;;;;;;;11.27;56.57;99588.34;4935439;28;96477;-78
2021/11/21 10:04:11;;;;;;;16.65;13.43;;;;;;;11.36;55.79;99585.28;4918770;28;97787;-78
2021/11/21 10:06:48;;;;;;;14.95;12.60;;;;;;;11.35;56.15;99583.59;4918903;28;97152;-78
2021/11/21 10:09:18;;;;;;;15.57;12.25;;;;;;;11.51;55.63;99586.28;4934721;28;96653;-79
2021/11/21 10:12:07;;;;;;;15.43;12.57;;;;;;;11.46;55.41;99594.44;4951152;28;96505;-79
2021/11/21 10:14:46;;;;;;;15.75;13.30;;;;;;;11.57;55.31;99575.47;4934333;28;97710;-79
2021/11/21 10:17:19;;;;;;;16.17;12.60;;;;;;;11.81;54.86;99576.03;4950546;28;100585;-79
2021/11/21 10:20:06;;;;;;;17.10;12.40;;;;;;;12.13;54.43;99584.06;4918807;28;96613;-79
2021/11/21 10:23:08;;;;;;;13.25;11.45;;;;;;;12.04;54.17;99577.50;4918513;28;96846;-80
2021/11/21 10:25:40;;;;;;;15.75;12.57;;;;;;;11.98;54.43;99575.19;4913440;28;97944;-80
2021/11/21 10:28:15;;;;;;;15.35;11.52;;;;;;;12.06;53.60;99578.28;4918006;28;100432;-79
2021/11/21 10:31:13;;;;;;;14.25;11.43;;;;;;;12.06;53.74;99585.31;4951237;28;96620;-78
2021/11/21 10:33:50;;;;;;;17.55;12.98;;;;;;;11.86;54.22;99576.66;4919353;28;96598;-77
2021/11/21 10:36:20;;;;;;;14.20;11.82;;;;;;;11.83;54.06;99573.31;4934276;28;100592;-78
2021/11/21 10:38:51;;;;;;;14.50;11.25;;;;;;;11.78;54.47;99569.16;4918262;28;100640;-77
2021/11/21 10:41:19;;;;;;;14.68;12.55;;;;;;;11.83;54.28;99579.41;4950641;28;96571;-78
2021/11/21 10:44:05;;;;;;;15.55;12.70;;;;;;;11.94;54.02;99565.75;4934739;28;96762;-77
2021/11/21 10:46:35;;;;;;;16.35;13.13;;;;;;;12.13;53.71;99556.00;4950557;28;100466;-78
2021/11/21 10:49:36;;;;;;;15.35;12.65;;;;;;;12.36;53.04;99564.44;4934360;28;97511;-78
2021/11/21 10:52:26;;;;;;;14.13;11.65;;;;;;;12.48;53.00;99570.81;4951010;28;96444;-77
2021/11/21 10:54:54;;;;;;;15.32;12.15;;;;;;;12.78;52.28;99558.63;4935974;28;96578;-78
2021/11/21 10:57:34;;;;;;;14.85;11.93;;;;;;;12.88;51.76;99558.97;4934027;28;97914;-78
2021/11/21 11:00:04;;;;;;;14.10;10.68;;;;;;;12.59;52.82;99564.03;4949161;28;100726;-78
2021/11/21 11:02:37;;;;;;;16.05;11.90;;;;;;;12.38;53.03;99563.41;4934316;28;96464;-78
2021/11/21 11:05:12;;;;;;;13.57;10.98;;;;;;;12.26;53.21;99563.25;4934518;28;96457;-78
2021/11/21 11:07:41;;;;;;;14.43;11.43;;;;;;;12.14;52.57;99564.72;4934832;28;97967;-77
2021/11/21 11:10:14;;;;;;;12.43;10.38;;;;;;;11.93;53.31;99562.28;4917685;28;98872;-76
2021/11/21 11:12:42;;;;;;;13.35;10.73;;;;;;;11.91;53.08;99561.50;4934188;28;96462;-77
2021/11/21 11:15:07;;;;;;;15.23;11.95;;;;;;;11.94;53.09;99545.56;4935474;28;96705;-82
2021/11/21 11:17:34;;;;;;;15.20;11.80;;;;;;;11.89;52.58;99552.84;4949721;28;100683;-78
2021/11/21 11:20:01;;;;;;;14.05;10.52;;;;;;;11.77;53.08;99550.81;4917672;28;97296;-78